createdAt,value
2023-05-14T00:00:58.050Z,1006.08
2023-05-14T00:01:58.070Z,1006.09
2023-05-14T00:02:58.183Z,1006.09
2023-05-14T00:03:58.171Z,1006.09
2023-05-14T00:04:57.985Z,1006.08
2023-05-14T00:05:58.002Z,1006.08
2023-05-14T00:06:58.005Z,1006.07
2023-05-14T00:07:57.973Z,1006.07
2023-05-14T00:08:57.928Z,1006.07
2023-05-14T00:09:57.940Z,1006.06
2023-05-14T00:10:57.940Z,1006.06
2023-05-14T00:11:57.923Z,1006.06
2023-05-14T00:12:57.914Z,1006.06
2023-05-14T00:13:57.904Z,1006.06
2023-05-14T00:14:57.871Z,1006.05
2023-05-14T00:15:57.948Z,1006.05
2023-05-14T00:16:57.847Z,1006.05
2023-05-14T00:17:57.910Z,1006.05
2023-05-14T00:18:57.959Z,1006.05
2023-05-14T00:19:57.834Z,1006.05
2023-05-14T00:20:57.813Z,1006.04
2023-05-14T00:21:57.810Z,1006.04
2023-05-14T00:22:57.782Z,1006.02
2023-05-14T00:23:57.785Z,1006.00
2023-05-14T00:24:57.773Z,1005.98
2023-05-14T00:25:57.771Z,1005.97
2023-05-14T00:26:57.741Z,1005.96
2023-05-14T00:27:57.752Z,1005.95
2023-05-14T00:28:57.718Z,1005.95
2023-05-14T00:29:57.722Z,1005.94
2023-05-14T00:30:57.741Z,1005.93
2023-05-14T00:31:57.711Z,1005.92
2023-05-14T00:32:57.697Z,1005.90
2023-05-14T00:33:57.683Z,1005.89
2023-05-14T00:34:57.672Z,1005.88
2023-05-14T00:35:57.718Z,1005.86
2023-05-14T00:36:57.640Z,1005.85
2023-05-14T00:37:57.666Z,1005.84
2023-05-14T00:38:57.623Z,1005.83
2023-05-14T00:39:57.635Z,1005.82
2023-05-14T00:40:57.602Z,1005.82
2023-05-14T00:41:57.620Z,1005.81
2023-05-14T00:42:57.579Z,1005.80
2023-05-14T00:43:57.583Z,1005.79
2023-05-14T00:44:57.588Z,1005.78
2023-05-14T00:45:57.561Z,1005.78
2023-05-14T00:46:57.556Z,1005.77
2023-05-14T00:47:57.574Z,1005.78
2023-05-14T00:48:57.550Z,1005.77
2023-05-14T00:49:57.501Z,1005.77
2023-05-14T00:50:57.507Z,1005.77
2023-05-14T00:51:57.491Z,1005.78
2023-05-14T00:52:57.458Z,1005.78
2023-05-14T00:53:57.463Z,1005.79
2023-05-14T00:54:57.449Z,1005.80
2023-05-14T00:55:57.456Z,1005.80
2023-05-14T00:56:57.425Z,1005.79
2023-05-14T00:57:57.443Z,1005.80
2023-05-14T00:58:57.400Z,1005.79
2023-05-14T00:59:57.409Z,1005.79
2023-05-14T01:00:57.448Z,1005.79
2023-05-14T01:01:57.390Z,1005.79
2023-05-14T01:02:57.408Z,1005.78
2023-05-14T01:03:57.641Z,1005.78
2023-05-14T01:04:57.332Z,1005.78
2023-05-14T01:05:57.386Z,1005.77
2023-05-14T01:06:57.308Z,1005.76
2023-05-14T01:07:57.308Z,1005.75
2023-05-14T01:08:57.295Z,1005.75
2023-05-14T01:09:57.296Z,1005.76
2023-05-14T01:10:57.269Z,1005.75
2023-05-14T01:11:57.317Z,1005.74
2023-05-14T01:12:57.268Z,1005.73
2023-05-14T01:13:57.247Z,1005.73
2023-05-14T01:14:57.269Z,1005.72
2023-05-14T01:15:57.240Z,1005.72
2023-05-14T01:16:57.278Z,1005.71
2023-05-14T01:17:57.223Z,1005.70
2023-05-14T01:18:57.201Z,1005.69
2023-05-14T01:19:57.208Z,1005.69
2023-05-14T01:20:57.184Z,1005.68
2023-05-14T01:21:57.219Z,1005.67
2023-05-14T01:22:57.161Z,1005.66
2023-05-14T01:23:57.132Z,1005.66
2023-05-14T01:24:57.134Z,1005.66
2023-05-14T01:25:57.164Z,1005.66
2023-05-14T01:26:57.130Z,1005.67
2023-05-14T01:27:57.089Z,1005.66
2023-05-14T01:28:57.086Z,1005.66
2023-05-14T01:29:57.072Z,1005.66
2023-05-14T06:00:55.209Z,1005.57
2023-05-14T06:01:56.190Z,1005.55
2023-05-14T06:02:57.939Z,1005.56
2023-05-14T06:03:56.153Z,1005.55
2023-05-14T06:04:56.198Z,1005.55
2023-05-14T06:05:56.144Z,1005.55
2023-05-14T06:06:56.142Z,1005.54
2023-05-14T06:07:56.171Z,1005.54
2023-05-14T06:08:56.176Z,1005.54
2023-05-14T06:09:56.093Z,1005.55
2023-05-14T06:10:56.106Z,1005.55
2023-05-14T06:11:56.077Z,1005.55
2023-05-14T06:12:56.089Z,1005.56
2023-05-14T06:13:56.103Z,1005.57
2023-05-14T06:14:56.089Z,1005.56
2023-05-14T06:15:56.021Z,1005.57
2023-05-14T06:16:56.076Z,1005.57
2023-05-14T06:17:56.057Z,1005.57
2023-05-14T06:18:56.044Z,1005.57
2023-05-14T06:19:56.032Z,1005.57
2023-05-14T06:20:56.034Z,1005.56
2023-05-14T06:21:55.982Z,1005.56
2023-05-14T06:22:55.981Z,1005.57
2023-05-14T06:23:55.933Z,1005.56
2023-05-14T06:24:55.941Z,1005.56
2023-05-14T06:25:55.915Z,1005.56
2023-05-14T06:26:55.958Z,1005.55
2023-05-14T06:27:55.897Z,1005.54
2023-05-14T06:28:55.894Z,1005.54
2023-05-14T06:29:55.884Z,1005.53
2023-05-14T06:30:55.900Z,1005.53
2023-05-14T06:31:55.881Z,1005.51
2023-05-14T06:32:55.901Z,1005.52
2023-05-14T06:33:55.837Z,1005.51
2023-05-14T06:34:55.833Z,1005.52
2023-05-14T06:35:55.833Z,1005.52
2023-05-14T06:36:55.821Z,1005.52
2023-05-14T06:37:55.792Z,1005.52
2023-05-14T06:38:55.805Z,1005.52
2023-05-14T06:39:57.734Z,1005.51
2023-05-14T06:40:55.768Z,1005.52
2023-05-14T06:41:55.755Z,1005.52
2023-05-14T06:42:55.752Z,1005.53
2023-05-14T06:43:55.735Z,1005.54
2023-05-14T06:44:55.771Z,1005.54
2023-05-14T06:45:55.739Z,1005.54
2023-05-14T06:46:55.684Z,1005.55
2023-05-14T06:47:55.784Z,1005.56
2023-05-14T06:48:57.969Z,1005.57
2023-05-14T06:49:55.683Z,1005.59
2023-05-14T06:50:55.667Z,1005.58
2023-05-14T06:51:55.651Z,1005.58
2023-05-14T06:52:55.629Z,1005.59
2023-05-14T06:53:55.641Z,1005.58
2023-05-14T06:54:55.586Z,1005.55
2023-05-14T06:55:55.616Z,1005.53
2023-05-14T06:56:55.600Z,1005.51
2023-05-14T06:57:55.593Z,1005.51
2023-05-14T06:58:55.562Z,1005.51
2023-05-14T06:59:55.550Z,1005.49
2023-05-14T07:00:55.532Z,1005.49
2023-05-14T07:01:55.648Z,1005.48
2023-05-14T07:02:55.566Z,1005.46
2023-05-14T07:03:55.562Z,1005.46
2023-05-14T07:04:55.492Z,1005.48
2023-05-14T07:05:55.553Z,1005.46
2023-05-14T07:06:55.465Z,1005.46
2023-05-14T07:07:55.486Z,1005.47
2023-05-14T07:08:55.446Z,1005.45
2023-05-14T07:09:55.460Z,1005.41
2023-05-14T07:10:55.423Z,1005.44
2023-05-14T07:11:55.439Z,1005.46
2023-05-14T07:12:55.399Z,1005.47
2023-05-14T07:13:55.459Z,1005.46
2023-05-14T07:14:55.401Z,1005.45
2023-05-14T07:15:55.390Z,1005.45
2023-05-14T07:16:55.454Z,1005.46
2023-05-14T07:17:55.477Z,1005.42
2023-05-14T07:18:55.434Z,1005.41
2023-05-14T07:19:55.412Z,1005.38
2023-05-14T07:20:55.336Z,1005.34
2023-05-14T07:21:55.318Z,1005.31
2023-05-14T07:22:55.302Z,1005.31
2023-05-14T07:23:55.302Z,1005.30
2023-05-14T07:24:55.273Z,1005.29
2023-05-14T07:25:55.310Z,1005.25
2023-05-14T07:26:55.308Z,1005.23
2023-05-14T07:27:55.253Z,1005.23
2023-05-14T07:28:55.223Z,1005.24
2023-05-14T07:29:55.240Z,1005.21
2023-05-14T07:30:55.273Z,1005.18
2023-05-14T07:31:55.205Z,1005.18
2023-05-14T07:32:55.533Z,1005.19
2023-05-14T07:33:55.177Z,1005.19
2023-05-14T07:34:55.155Z,1005.18
2023-05-14T07:35:55.172Z,1005.18
2023-05-14T07:36:55.149Z,1005.19
2023-05-14T07:37:55.153Z,1005.15
2023-05-14T07:38:55.117Z,1005.15
2023-05-14T07:39:55.138Z,1005.14
2023-05-14T07:40:55.094Z,1005.14
2023-05-14T07:41:55.109Z,1005.16
2023-05-14T07:42:55.089Z,1005.13
2023-05-14T07:43:55.105Z,1005.12
2023-05-14T07:44:55.051Z,1005.12
2023-05-14T07:45:55.089Z,1005.11
2023-05-14T07:46:55.070Z,1005.13
2023-05-14T07:47:55.182Z,1005.12
2023-05-14T07:48:55.012Z,1005.10
2023-05-14T07:49:55.026Z,1005.08
2023-05-14T07:50:54.992Z,1005.06
2023-05-14T07:51:54.979Z,1005.08
2023-05-14T07:52:55.037Z,1005.05
2023-05-14T07:53:54.962Z,1005.07
2023-05-14T07:54:54.958Z,1005.07
2023-05-14T07:55:54.946Z,1005.07
2023-05-14T07:56:54.940Z,1005.05
2023-05-14T07:57:54.921Z,1005.04
2023-05-14T07:58:54.943Z,1005.01
2023-05-14T07:59:54.921Z,1005.02
2023-05-14T08:00:54.877Z,1004.99
2023-05-14T08:01:54.961Z,1005.03
2023-05-14T08:02:55.084Z,1005.00
2023-05-14T08:03:55.005Z,1004.98
2023-05-14T08:04:54.829Z,1004.99
2023-05-14T08:05:54.875Z,1004.98
2023-05-14T08:06:54.811Z,1004.96
2023-05-14T08:07:54.816Z,1004.97
2023-05-14T08:08:54.810Z,1004.94
2023-05-14T08:09:54.818Z,1004.94
2023-05-14T08:10:54.807Z,1004.93
2023-05-14T08:11:54.781Z,1004.92
2023-05-14T08:12:54.776Z,1004.92
2023-05-14T08:13:54.749Z,1004.91
2023-05-14T08:14:54.729Z,1004.90
2023-05-14T08:15:54.789Z,1004.92
2023-05-14T08:16:54.754Z,1004.92
2023-05-14T08:17:54.861Z,1004.93
2023-05-14T08:18:54.725Z,1004.92
2023-05-14T08:19:54.682Z,1004.92
2023-05-14T08:20:54.694Z,1004.94
2023-05-14T08:21:54.682Z,1004.93
2023-05-14T08:22:54.635Z,1004.92
2023-05-14T08:23:54.651Z,1004.89
2023-05-14T08:24:54.621Z,1004.90
2023-05-14T08:25:54.617Z,1004.86
2023-05-14T08:26:54.613Z,1004.84
2023-05-14T08:27:54.615Z,1004.82
2023-05-14T08:28:54.583Z,1004.82
2023-05-14T08:29:54.579Z,1004.83
2023-05-14T08:30:54.668Z,1004.80
2023-05-14T08:31:54.565Z,1004.82
2023-05-14T08:32:54.968Z,1004.80
2023-05-14T08:33:54.566Z,1004.81
2023-05-14T08:34:54.506Z,1004.78
2023-05-14T08:35:54.522Z,1004.76
2023-05-14T08:36:54.509Z,1004.74
2023-05-14T08:37:54.655Z,1004.76
2023-05-14T08:38:54.471Z,1004.75
2023-05-14T08:39:54.483Z,1004.72
2023-05-14T08:40:54.456Z,1004.71
2023-05-14T08:41:54.469Z,1004.71
2023-05-14T08:42:54.447Z,1004.70
2023-05-14T08:43:54.432Z,1004.68
2023-05-14T08:44:54.401Z,1004.67
2023-05-14T08:45:54.399Z,1004.67
2023-05-14T08:46:54.381Z,1004.66
2023-05-14T08:47:54.519Z,1004.65
2023-05-14T08:48:54.465Z,1004.62
2023-05-14T08:49:54.368Z,1004.64
2023-05-14T08:50:54.347Z,1004.63
2023-05-14T08:51:54.336Z,1004.63
2023-05-14T08:52:54.316Z,1004.62
2023-05-14T08:53:54.351Z,1004.62
2023-05-14T08:54:54.300Z,1004.61
2023-05-14T08:55:54.287Z,1004.60
2023-05-14T08:56:54.290Z,1004.58
2023-05-14T08:57:54.295Z,1004.58
2023-05-14T08:58:54.237Z,1004.60
2023-05-14T08:59:54.278Z,1004.60
2023-05-14T09:00:54.233Z,1004.60
2023-05-14T09:01:54.257Z,1004.59
2023-05-14T09:02:54.238Z,1004.57
2023-05-14T09:03:54.222Z,1004.55
2023-05-14T09:04:54.188Z,1004.55
2023-05-14T09:05:54.225Z,1004.55
2023-05-14T09:06:54.165Z,1004.48
2023-05-14T09:07:54.160Z,1004.52
2023-05-14T09:08:54.141Z,1004.51
2023-05-14T09:09:54.177Z,1004.50
2023-05-14T09:10:54.151Z,1004.50
2023-05-14T09:11:54.154Z,1004.51
2023-05-14T09:12:54.098Z,1004.53
2023-05-14T09:13:54.116Z,1004.50
2023-05-14T09:14:54.077Z,1004.52
2023-05-14T09:15:54.077Z,1004.50
2023-05-14T09:16:54.096Z,1004.48
2023-05-14T09:17:54.178Z,1004.49
2023-05-14T09:18:54.038Z,1004.47
2023-05-14T09:19:54.035Z,1004.47
2023-05-14T09:20:54.006Z,1004.45
2023-05-14T09:21:54.018Z,1004.42
2023-05-14T09:22:53.982Z,1004.40
2023-05-14T09:23:54.023Z,1004.39
2023-05-14T09:24:53.970Z,1004.39
2023-05-14T09:25:53.964Z,1004.40
2023-05-14T09:26:53.953Z,1004.42
2023-05-14T09:27:53.942Z,1004.40
2023-05-14T09:28:53.917Z,1004.41
2023-05-14T09:29:53.954Z,1004.41
2023-05-14T09:30:53.910Z,1004.40
2023-05-14T09:31:53.960Z,1004.41
2023-05-14T09:32:53.964Z,1004.39
2023-05-14T09:33:53.901Z,1004.36
2023-05-14T09:34:53.860Z,1004.36
2023-05-14T09:35:53.858Z,1004.38
2023-05-14T09:36:53.822Z,1004.35
2023-05-14T09:37:53.833Z,1004.35
2023-05-14T09:38:53.805Z,1004.36
2023-05-14T09:39:53.812Z,1004.35
2023-05-14T09:40:53.834Z,1004.35
2023-05-14T09:41:53.797Z,1004.36
2023-05-14T09:42:53.753Z,1004.39
2023-05-14T09:43:53.768Z,1004.38
2023-05-14T09:44:53.759Z,1004.37
2023-05-14T09:45:53.746Z,1004.37
2023-05-14T09:46:53.833Z,1004.39
2023-05-14T09:47:53.826Z,1004.39
2023-05-14T09:48:53.701Z,1004.40
2023-05-14T09:49:53.702Z,1004.37
2023-05-14T09:50:53.671Z,1004.35
2023-05-14T09:51:53.687Z,1004.35
2023-05-14T09:52:53.668Z,1004.33
2023-05-14T09:53:53.668Z,1004.38
2023-05-14T09:54:53.640Z,1004.35
2023-05-14T09:55:53.638Z,1004.36
2023-05-14T09:56:55.630Z,1004.37
2023-05-14T09:57:53.643Z,1004.38
2023-05-14T09:58:53.579Z,1004.36
2023-05-14T09:59:53.589Z,1004.35
2023-05-14T10:00:53.577Z,1004.36
2023-05-14T10:01:53.560Z,1004.36
2023-05-14T10:02:53.591Z,1004.36
2023-05-14T10:03:53.602Z,1004.38
2023-05-14T10:04:53.553Z,1004.38
2023-05-14T10:05:53.531Z,1004.39
2023-05-14T10:06:53.497Z,1004.40
2023-05-14T10:07:53.500Z,1004.39
2023-05-14T10:08:53.474Z,1004.40
2023-05-14T10:09:53.500Z,1004.37
2023-05-14T10:10:53.452Z,1004.36
2023-05-14T10:11:53.470Z,1004.35
2023-05-14T10:12:53.488Z,1004.35
2023-05-14T10:13:53.462Z,1004.30
2023-05-14T10:14:53.418Z,1004.34
2023-05-14T10:15:53.456Z,1004.31
2023-05-14T10:16:53.503Z,1004.30
2023-05-14T10:17:53.424Z,1004.32
2023-05-14T10:18:54.517Z,1004.31
2023-05-14T10:19:53.364Z,1004.31
2023-05-14T10:20:53.366Z,1004.32
2023-05-14T10:21:53.348Z,1004.32
2023-05-14T10:22:53.339Z,1004.29
2023-05-14T10:23:53.327Z,1004.31
2023-05-14T10:24:53.303Z,1004.32
2023-05-14T10:25:53.304Z,1004.32
2023-05-14T10:26:53.298Z,1004.28
2023-05-14T10:27:53.279Z,1004.33
2023-05-14T10:28:53.259Z,1004.29
2023-05-14T10:29:53.257Z,1004.28
2023-05-14T10:30:53.280Z,1004.28
2023-05-14T10:31:53.268Z,1004.28
2023-05-14T10:32:53.246Z,1004.27
2023-05-14T10:33:53.219Z,1004.27
2023-05-14T10:34:53.184Z,1004.27
2023-05-14T10:35:53.220Z,1004.26
2023-05-14T10:36:53.172Z,1004.26
2023-05-14T10:37:53.214Z,1004.27
2023-05-14T10:38:53.152Z,1004.23
2023-05-14T10:39:53.165Z,1004.24
2023-05-14T10:40:54.256Z,1004.22
2023-05-14T10:41:53.138Z,1004.21
2023-05-14T10:42:53.123Z,1004.19
2023-05-14T10:43:53.113Z,1004.22
2023-05-14T10:44:53.096Z,1004.23
2023-05-14T10:45:53.087Z,1004.20
2023-05-14T10:46:53.080Z,1004.23
2023-05-14T10:47:53.095Z,1004.19
2023-05-14T10:48:53.089Z,1004.18
2023-05-14T10:49:53.053Z,1004.18
2023-05-14T10:50:53.190Z,1004.18
2023-05-14T10:51:53.028Z,1004.18
2023-05-14T10:52:53.015Z,1004.18
2023-05-14T10:53:52.996Z,1004.15
2023-05-14T10:54:53.035Z,1004.11
2023-05-14T10:55:52.966Z,1004.20
2023-05-14T10:56:53.011Z,1004.15
2023-05-14T10:57:52.946Z,1004.12
2023-05-14T10:58:52.973Z,1004.12
2023-05-14T10:59:52.925Z,1004.11
2023-05-14T11:00:52.928Z,1004.08
2023-05-14T11:01:52.933Z,1004.09
2023-05-14T11:02:52.931Z,1004.09
2023-05-14T11:03:52.924Z,1004.05
2023-05-14T11:04:52.942Z,1004.02
2023-05-14T11:05:52.874Z,1004.02
2023-05-14T11:06:52.865Z,1004.01
2023-05-14T11:07:52.829Z,1003.98
2023-05-14T11:08:52.837Z,1003.96
2023-05-14T11:09:52.846Z,1003.96
2023-05-14T11:10:52.842Z,1003.94
2023-05-14T11:11:52.786Z,1003.95
2023-05-14T11:12:52.849Z,1003.97
2023-05-14T11:13:52.767Z,1003.95
2023-05-14T11:14:52.781Z,1003.91
2023-05-14T11:15:52.749Z,1003.87
2023-05-14T11:16:52.843Z,1003.83
2023-05-14T11:17:52.768Z,1003.85
2023-05-14T11:18:52.859Z,1003.84
2023-05-14T11:19:52.707Z,1003.85
2023-05-14T11:20:52.718Z,1003.85
2023-05-14T11:21:52.689Z,1003.83
2023-05-14T11:22:52.702Z,1003.87
2023-05-14T11:23:52.698Z,1003.86
2023-05-14T11:24:52.676Z,1003.88
2023-05-14T11:25:52.724Z,1003.84
2023-05-14T11:26:52.667Z,1003.81
2023-05-14T11:27:52.725Z,1003.83
2023-05-14T11:28:52.640Z,1003.81
2023-05-14T11:29:52.615Z,1003.81
2023-05-14T11:30:52.623Z,1003.79
2023-05-14T11:31:52.625Z,1003.82
2023-05-14T11:32:52.595Z,1003.84
2023-05-14T11:33:52.554Z,1003.79
2023-05-14T11:34:52.570Z,1003.78
2023-05-14T11:35:52.533Z,1003.77
2023-05-14T11:36:52.549Z,1003.77
2023-05-14T11:37:52.588Z,1003.76
2023-05-14T11:38:52.787Z,1003.76
2023-05-14T11:39:52.489Z,1003.73
2023-05-14T11:40:52.504Z,1003.71
2023-05-14T11:41:52.482Z,1003.69
2023-05-14T11:42:52.488Z,1003.69
2023-05-14T11:43:52.520Z,1003.66
2023-05-14T11:44:52.453Z,1003.65
2023-05-14T11:45:52.546Z,1003.61
2023-05-14T11:46:52.429Z,1003.64
2023-05-14T11:47:52.525Z,1003.59
2023-05-14T11:48:52.400Z,1003.59
2023-05-14T11:49:52.403Z,1003.56
2023-05-14T11:50:52.419Z,1003.59
2023-05-14T11:51:52.368Z,1003.55
2023-05-14T11:52:52.358Z,1003.55
2023-05-14T11:53:52.365Z,1003.52
2023-05-14T11:54:52.378Z,1003.54
2023-05-14T11:55:52.329Z,1003.50
2023-05-14T11:56:52.324Z,1003.51
2023-05-14T11:57:52.292Z,1003.56
2023-05-14T11:58:52.297Z,1003.50
2023-05-14T11:59:52.277Z,1003.48
2023-05-14T12:00:52.292Z,1003.47
2023-05-14T12:01:52.243Z,1003.46
2023-05-14T12:02:52.311Z,1003.40
2023-05-14T12:03:52.417Z,1003.38
2023-05-14T12:04:52.364Z,1003.40
2023-05-14T12:05:52.198Z,1003.36
2023-05-14T12:06:52.245Z,1003.39
2023-05-14T12:07:52.182Z,1003.40
2023-05-14T12:08:52.197Z,1003.39
2023-05-14T12:09:52.159Z,1003.41
2023-05-14T12:10:52.184Z,1003.39
2023-05-14T12:11:52.140Z,1003.39
2023-05-14T12:12:52.127Z,1003.40
2023-05-14T12:13:52.120Z,1003.38
2023-05-14T12:14:52.123Z,1003.33
2023-05-14T12:15:52.135Z,1003.35
2023-05-14T12:16:52.144Z,1003.32
2023-05-14T12:17:52.242Z,1003.29
2023-05-14T12:18:52.151Z,1003.29
2023-05-14T12:19:52.065Z,1003.29
2023-05-14T12:20:52.094Z,1003.26
2023-05-14T12:21:52.032Z,1003.26
2023-05-14T12:22:52.049Z,1003.23
2023-05-14T12:23:52.005Z,1003.21
2023-05-14T12:24:52.017Z,1003.20
2023-05-14T12:25:51.977Z,1003.23
2023-05-14T12:26:51.989Z,1003.22
2023-05-14T12:27:51.958Z,1003.22
2023-05-14T12:28:51.975Z,1003.20
2023-05-14T12:29:51.936Z,1003.20
2023-05-14T12:30:51.949Z,1003.18
2023-05-14T12:31:51.968Z,1003.18
2023-05-14T12:32:52.219Z,1003.16
2023-05-14T12:33:51.908Z,1003.15
2023-05-14T12:34:51.914Z,1003.14
2023-05-14T12:35:51.872Z,1003.11
2023-05-14T12:36:51.891Z,1003.09
2023-05-14T12:37:51.860Z,1003.07
2023-05-14T12:38:51.861Z,1003.03
2023-05-14T12:39:51.869Z,1002.99
2023-05-14T12:40:51.846Z,1002.99
2023-05-14T12:41:51.811Z,1003.02
2023-05-14T12:42:51.807Z,1002.99
2023-05-14T12:43:51.791Z,1003.00
2023-05-14T12:44:51.792Z,1002.98
2023-05-14T12:45:51.799Z,1002.94
2023-05-14T12:46:51.842Z,1002.91
2023-05-14T12:47:51.783Z,1002.89
2023-05-14T12:48:53.322Z,1002.87
2023-05-14T12:49:51.731Z,1002.89
2023-05-14T12:50:51.732Z,1002.89
2023-05-14T12:51:59.597Z,1002.86
2023-05-14T12:52:51.719Z,1002.83
2023-05-14T12:53:51.678Z,1002.83
2023-05-14T12:54:51.682Z,1002.79
2023-05-14T12:55:51.675Z,1002.80
2023-05-14T12:56:51.685Z,1002.83
2023-05-14T12:57:51.659Z,1002.79
2023-05-14T12:58:51.644Z,1002.74
2023-05-14T12:59:51.611Z,1002.74
2023-05-14T13:00:51.735Z,1002.71
2023-05-14T13:01:51.593Z,1002.70
2023-05-14T13:02:51.646Z,1002.67
2023-05-14T13:03:51.700Z,1002.67
2023-05-14T13:04:51.575Z,1002.64
2023-05-14T13:05:51.548Z,1002.64
2023-05-14T13:06:51.559Z,1002.61
2023-05-14T13:07:51.530Z,1002.59
2023-05-14T13:08:51.551Z,1002.61
2023-05-14T13:09:51.524Z,1002.58
2023-05-14T13:10:51.513Z,1002.66
2023-05-14T13:11:51.491Z,1002.62
2023-05-14T13:12:51.485Z,1002.60
2023-05-14T13:13:51.462Z,1002.56
2023-05-14T13:14:51.471Z,1002.54
2023-05-14T13:15:51.492Z,1002.54
2023-05-14T13:16:51.455Z,1002.50
2023-05-14T13:17:51.466Z,1002.50
2023-05-14T13:18:51.459Z,1002.51
2023-05-14T13:19:51.422Z,1002.49
2023-05-14T13:20:51.404Z,1002.46
2023-05-14T13:21:51.390Z,1002.45
2023-05-14T13:22:51.397Z,1002.44
2023-05-14T13:23:51.360Z,1002.42
2023-05-14T13:24:51.370Z,1002.41
2023-05-14T13:25:51.340Z,1002.41
2023-05-14T13:26:51.344Z,1002.45
2023-05-14T13:27:51.315Z,1002.41
2023-05-14T13:28:51.350Z,1002.40
2023-05-14T13:29:51.304Z,1002.41
2023-05-14T13:30:51.315Z,1002.39
2023-05-14T13:31:51.303Z,1002.36
2023-05-14T13:32:51.374Z,1002.34
2023-05-14T13:33:51.249Z,1002.34
2023-05-14T13:34:51.291Z,1002.39
2023-05-14T13:35:51.232Z,1002.35
2023-05-14T13:36:51.234Z,1002.36
2023-05-14T13:37:51.236Z,1002.34
2023-05-14T13:38:51.205Z,1002.29
2023-05-14T13:39:51.633Z,1002.28
2023-05-14T13:40:51.219Z,1002.26
2023-05-14T13:41:51.209Z,1002.25
2023-05-14T13:42:51.173Z,1002.22
2023-05-14T13:43:51.202Z,1002.21
2023-05-14T13:44:51.157Z,1002.18
2023-05-14T13:45:51.147Z,1002.15
2023-05-14T13:46:51.281Z,1002.14
2023-05-14T13:47:51.696Z,1002.14
2023-05-14T13:48:51.120Z,1002.12
2023-05-14T13:49:51.090Z,1002.09
2023-05-14T13:50:51.082Z,1002.10
2023-05-14T13:51:51.056Z,1002.08
2023-05-14T13:52:51.078Z,1002.06
2023-05-14T13:53:51.037Z,1002.05
2023-05-14T13:54:51.049Z,1001.98
2023-05-14T13:55:51.014Z,1002.01
2023-05-14T13:56:51.028Z,1002.03
2023-05-14T13:57:50.991Z,1002.04
2023-05-14T13:58:51.040Z,1002.02
2023-05-14T13:59:50.974Z,1002.00
2023-05-14T14:00:51.015Z,1001.95
2023-05-14T14:01:51.004Z,1001.97
2023-05-14T14:02:50.990Z,1001.91
2023-05-14T14:03:50.934Z,1001.93
2023-05-14T14:04:51.018Z,1001.99
2023-05-14T14:05:50.938Z,1001.96
2023-05-14T14:06:50.915Z,1001.95
2023-05-14T14:07:52.942Z,1001.95
2023-05-14T14:08:50.898Z,1001.91
2023-05-14T14:09:50.901Z,1001.91
2023-05-14T14:10:50.876Z,1001.88
2023-05-14T14:11:50.873Z,1001.82
2023-05-14T14:12:50.857Z,1001.80
2023-05-14T14:13:50.822Z,1001.80
2023-05-14T14:14:50.846Z,1001.82
2023-05-14T14:15:50.892Z,1001.77
2023-05-14T14:16:50.796Z,1001.72
2023-05-14T14:17:50.851Z,1001.72
2023-05-14T14:18:50.849Z,1001.68
2023-05-14T14:19:50.766Z,1001.62
2023-05-14T14:20:50.760Z,1001.60
2023-05-14T14:22:50.749Z,1001.55
2023-05-14T14:23:50.730Z,1001.51
2023-05-14T14:24:50.734Z,1001.53
2023-05-14T14:25:50.689Z,1001.52
2023-05-14T14:26:50.696Z,1001.56
2023-05-14T14:27:50.707Z,1001.50
2023-05-14T14:28:50.700Z,1001.52
2023-05-14T14:29:50.656Z,1001.50
2023-05-14T14:30:50.653Z,1001.49
2023-05-14T14:31:50.671Z,1001.45
2023-05-14T14:32:50.783Z,1001.43
2023-05-14T14:33:50.626Z,1001.38
2023-05-14T14:34:50.634Z,1001.35
2023-05-14T14:35:50.597Z,1001.32
2023-05-14T14:36:50.597Z,1001.31
2023-05-14T14:37:50.612Z,1001.26
2023-05-14T14:38:50.572Z,1001.26
2023-05-14T14:39:50.573Z,1001.21
2023-05-14T14:40:50.552Z,1001.18
2023-05-14T14:41:50.562Z,1001.22
2023-05-14T14:42:50.561Z,1001.23
2023-05-14T14:43:50.528Z,1001.23
2023-05-14T14:44:50.518Z,1001.19
2023-05-14T14:45:50.547Z,1001.20
2023-05-14T14:46:50.486Z,1001.25
2023-05-14T14:47:50.492Z,1001.25
2023-05-14T14:48:50.478Z,1001.25
2023-05-14T14:49:50.454Z,1001.24
2023-05-14T14:50:50.450Z,1001.23
2023-05-14T14:51:50.462Z,1001.18
2023-05-14T14:52:50.427Z,1001.19
2023-05-14T14:53:50.408Z,1001.17
2023-05-14T14:54:50.421Z,1001.16
2023-05-14T14:55:50.383Z,1001.13
2023-05-14T14:56:50.412Z,1001.13
2023-05-14T14:57:50.367Z,1001.13
2023-05-14T14:58:50.372Z,1001.14
2023-05-14T14:59:50.346Z,1001.12
2023-05-14T15:00:50.371Z,1001.10
2023-05-14T15:01:50.429Z,1001.17
2023-05-14T15:02:50.408Z,1001.12
2023-05-14T15:03:50.332Z,1001.18
2023-05-14T15:04:50.314Z,1001.20
2023-05-14T15:05:50.284Z,1001.21
2023-05-14T15:06:50.286Z,1001.21
2023-05-14T15:07:50.275Z,1001.22
2023-05-14T15:08:50.300Z,1001.17
2023-05-14T15:09:50.251Z,1001.15
2023-05-14T15:10:50.235Z,1001.15
2023-05-14T15:11:50.243Z,1001.10
2023-05-14T15:12:50.215Z,1001.15
2023-05-14T15:13:50.229Z,1001.20
2023-05-14T15:14:50.269Z,1001.24
2023-05-14T15:15:50.193Z,1001.19
2023-05-14T15:16:51.194Z,1001.22
2023-05-14T15:17:50.223Z,1001.26
2023-05-14T15:18:50.174Z,1001.21
2023-05-14T15:19:50.168Z,1001.21
2023-05-14T15:20:50.178Z,1001.20
2023-05-14T15:21:50.131Z,1001.24
2023-05-14T15:22:50.121Z,1001.26
2023-05-14T15:23:50.113Z,1001.29
2023-05-14T15:24:50.153Z,1001.34
2023-05-14T15:25:50.107Z,1001.28
2023-05-14T15:26:52.056Z,1001.29
2023-05-14T15:27:50.071Z,1001.28
2023-05-14T15:28:50.048Z,1001.27
2023-05-14T15:29:50.049Z,1001.24
2023-05-14T15:30:50.025Z,1001.26
2023-05-14T15:31:50.098Z,1001.26
2023-05-14T15:32:50.099Z,1001.26
2023-05-14T15:33:50.007Z,1001.27
2023-05-14T15:34:49.974Z,1001.28
2023-05-14T15:35:49.983Z,1001.27
2023-05-14T15:36:49.967Z,1001.25
2023-05-14T15:37:49.981Z,1001.28
2023-05-14T15:38:49.955Z,1001.27
2023-05-14T15:39:49.961Z,1001.26
2023-05-14T15:40:49.926Z,1001.32
2023-05-14T15:41:49.958Z,1001.30
2023-05-14T15:42:49.886Z,1001.41
2023-05-14T15:43:49.915Z,1001.44
2023-05-14T15:44:49.888Z,1001.33
2023-05-14T15:45:49.907Z,1001.48
2023-05-14T15:46:49.981Z,1001.46
2023-05-14T15:47:49.961Z,1001.49
2023-05-14T15:48:49.837Z,1001.43
2023-05-14T15:49:49.851Z,1001.50
2023-05-14T15:50:49.997Z,1001.57
2023-05-14T15:51:49.808Z,1001.56
2023-05-14T15:52:49.828Z,1001.55
2023-05-14T15:53:49.796Z,1001.53
2023-05-14T15:54:49.793Z,1001.61
2023-05-14T15:55:49.770Z,1001.53
2023-05-14T15:56:49.754Z,1001.55
2023-05-14T15:57:49.751Z,1001.62
2023-05-14T15:58:49.735Z,1001.61
2023-05-14T15:59:49.735Z,1001.61
2023-05-14T16:00:49.752Z,1001.61
2023-05-14T16:01:49.747Z,1001.63
2023-05-14T16:02:49.730Z,1001.63
2023-05-14T16:03:49.746Z,1001.59
2023-05-14T16:04:49.753Z,1001.59
2023-05-14T16:05:49.667Z,1001.58
2023-05-14T16:06:49.666Z,1001.59
2023-05-14T16:07:49.659Z,1001.59
2023-05-14T16:08:49.618Z,1001.59
2023-05-14T16:09:49.610Z,1001.58
2023-05-14T16:10:49.597Z,1001.56
2023-05-14T16:11:49.602Z,1001.55
2023-05-14T16:12:49.595Z,1001.57
2023-05-14T16:13:49.570Z,1001.53
2023-05-14T16:14:49.549Z,1001.56
2023-05-14T16:15:49.550Z,1001.54
2023-05-14T16:16:49.591Z,1001.54
2023-05-14T16:17:49.626Z,1001.50
2023-05-14T16:18:49.623Z,1001.46
2023-05-14T16:19:49.503Z,1001.48
2023-05-14T16:20:49.485Z,1001.50
2023-05-14T16:21:49.541Z,1001.44
2023-05-14T16:22:49.471Z,1001.51
2023-05-14T16:23:49.487Z,1001.48
2023-05-14T16:24:49.466Z,1001.46
2023-05-14T16:25:49.448Z,1001.49
2023-05-14T16:26:49.422Z,1001.51
2023-05-14T16:27:49.429Z,1001.50
2023-05-14T16:28:49.407Z,1001.52
2023-05-14T16:29:49.419Z,1001.50
2023-05-14T16:30:49.470Z,1001.50
2023-05-14T16:31:49.577Z,1001.49
2023-05-14T16:32:49.441Z,1001.44
2023-05-14T16:33:49.348Z,1001.47
2023-05-14T16:34:49.332Z,1001.51
2023-05-14T16:35:49.334Z,1001.47
2023-05-14T16:36:49.345Z,1001.45